createdAt,value
2023-05-10T00:00:03.377Z,6.69
2023-05-10T00:03:26.127Z,6.57
2023-05-10T00:06:29.101Z,6.46
2023-05-10T00:09:31.899Z,6.35
2023-05-10T00:12:34.768Z,6.25
2023-05-10T00:15:37.843Z,6.14
2023-05-10T00:18:41.245Z,6.05
2023-05-10T00:21:44.023Z,5.96
2023-05-10T00:24:46.908Z,5.87
2023-05-10T00:27:50.651Z,5.76
2023-05-10T00:30:53.355Z,5.67
2023-05-10T00:33:56.755Z,5.58
2023-05-10T00:36:59.584Z,5.48
2023-05-10T00:40:02.417Z,5.38
2023-05-10T00:43:05.353Z,5.27
2023-05-10T00:46:08.823Z,5.17
2023-05-10T00:49:12.281Z,5.07
2023-05-10T00:52:15.258Z,4.99
2023-05-10T00:55:18.946Z,4.94
2023-05-10T00:58:21.812Z,4.91
2023-05-10T01:01:25.011Z,4.90
2023-05-10T01:04:28.668Z,4.90
2023-05-10T01:07:31.497Z,4.91
2023-05-10T01:10:34.388Z,4.90
2023-05-10T01:13:39.798Z,4.90
2023-05-10T01:16:45.280Z,4.92
2023-05-10T01:19:48.123Z,4.98
2023-05-10T01:23:24.542Z,5.06
2023-05-10T01:26:42.315Z,5.16
2023-05-10T01:30:17.472Z,5.24
2023-05-10T01:33:28.033Z,5.34
2023-05-10T01:36:36.455Z,5.43
2023-05-10T01:39:45.394Z,5.51
2023-05-10T01:42:54.337Z,5.57
2023-05-10T01:46:15.692Z,5.63
2023-05-10T01:49:27.821Z,5.67
2023-05-10T01:52:34.848Z,5.72
2023-05-10T01:55:46.691Z,5.75
2023-05-10T01:58:52.142Z,5.76
2023-05-10T02:01:56.645Z,5.77
2023-05-10T02:05:00.616Z,5.76
2023-05-10T02:08:07.003Z,5.74
2023-05-10T02:11:13.779Z,5.70
2023-05-10T02:14:17.936Z,5.67
2023-05-10T02:17:22.182Z,5.65
2023-05-10T02:20:26.577Z,5.66
2023-05-10T02:23:30.725Z,5.66
2023-05-10T02:26:36.324Z,5.67
2023-05-10T02:29:40.441Z,5.69
2023-05-10T02:32:44.239Z,5.70
2023-05-10T02:35:48.013Z,5.71
2023-05-10T02:38:52.853Z,5.70
2023-05-10T02:41:57.011Z,5.67
2023-05-10T02:45:08.409Z,5.64
2023-05-10T02:48:11.557Z,5.61
2023-05-10T02:51:19.274Z,5.57
2023-05-10T02:54:28.580Z,5.52
2023-05-10T02:57:35.456Z,5.46
2023-05-10T03:00:38.430Z,5.39
2023-05-10T03:03:41.261Z,5.33
2023-05-10T03:10:06.364Z,5.23
2023-05-10T03:13:28.208Z,5.23
2023-05-10T03:16:44.794Z,5.27
2023-05-10T03:20:12.858Z,5.34
2023-05-10T03:23:42.603Z,5.44
2023-05-10T03:26:46.786Z,5.55
2023-05-10T03:29:52.217Z,5.72
2023-05-10T03:32:55.285Z,6.31
2023-05-10T03:35:58.137Z,7.37
2023-05-10T03:39:00.924Z,8.60
2023-05-10T03:42:03.825Z,9.87
2023-05-10T03:45:07.499Z,11.14
2023-05-10T03:48:10.359Z,12.44
2023-05-10T03:51:13.191Z,13.68
2023-05-10T03:54:15.991Z,14.69
2023-05-10T03:57:18.771Z,15.60
2023-05-10T04:00:21.522Z,16.49
2023-05-10T04:03:24.634Z,17.37
2023-05-10T04:06:27.542Z,18.20
2023-05-10T04:09:30.419Z,19.02
2023-05-10T04:12:33.234Z,19.70
2023-05-10T04:15:37.087Z,20.36
2023-05-10T04:18:40.886Z,21.06
2023-05-10T04:21:43.633Z,21.64
2023-05-10T04:24:46.623Z,22.15
2023-05-10T04:27:49.408Z,22.70
2023-05-10T04:30:52.485Z,23.26
2023-05-10T04:33:55.478Z,23.78
2023-05-10T04:36:58.316Z,24.24
2023-05-10T04:40:01.189Z,24.69
2023-05-10T04:43:03.994Z,24.48
2023-05-10T04:46:07.030Z,22.96
2023-05-10T04:49:10.695Z,21.19
2023-05-10T04:52:13.789Z,19.69
2023-05-10T04:55:17.186Z,18.45
2023-05-10T04:58:19.992Z,17.52
2023-05-10T05:01:24.179Z,16.81
2023-05-10T05:04:27.104Z,16.29
2023-05-10T05:07:31.575Z,15.92
2023-05-10T05:10:34.333Z,15.62
2023-05-10T05:13:37.155Z,15.46
2023-05-10T05:16:40.001Z,15.32
2023-05-10T05:19:42.796Z,15.20
2023-05-10T05:22:46.006Z,15.10
2023-05-10T05:25:48.778Z,15.02
2023-05-10T05:28:54.874Z,14.98
2023-05-10T05:31:57.791Z,14.96
2023-05-10T05:35:00.678Z,15.01
2023-05-10T05:38:03.518Z,15.02
2023-05-10T05:41:06.364Z,15.06
2023-05-10T05:44:09.275Z,15.16
2023-05-10T05:47:12.169Z,15.24
2023-05-10T05:50:14.928Z,15.36
2023-05-10T05:53:17.693Z,15.42
2023-05-10T05:56:25.444Z,15.51
2023-05-10T05:59:28.974Z,15.62
2023-05-10T06:02:31.908Z,15.72
2023-05-10T06:05:34.772Z,15.83
2023-05-10T06:08:37.549Z,15.93
2023-05-10T06:11:40.345Z,16.03
2023-05-10T06:14:43.126Z,16.09
2023-05-10T06:17:45.911Z,16.20
2023-05-10T06:20:48.706Z,16.30
2023-05-10T06:23:51.528Z,16.43
2023-05-10T06:26:54.338Z,16.58
2023-05-10T06:30:09.161Z,16.71
2023-05-10T06:33:17.048Z,16.82
2023-05-10T06:36:19.934Z,16.95
2023-05-10T06:39:22.703Z,17.09
2023-05-10T06:42:26.589Z,17.26
2023-05-10T06:45:29.364Z,17.42
2023-05-10T06:48:32.169Z,17.51
2023-05-10T06:51:34.970Z,17.56
2023-05-10T06:54:37.782Z,17.67
2023-05-10T06:57:40.569Z,17.82
2023-05-10T07:00:44.929Z,17.97
2023-05-10T07:03:47.769Z,18.02
2023-05-10T07:06:50.810Z,18.08
2023-05-10T07:09:53.629Z,18.19
2023-05-10T07:12:56.611Z,18.37
2023-05-10T07:16:00.787Z,18.50
2023-05-10T07:19:03.725Z,18.57
2023-05-10T07:22:06.572Z,18.65
2023-05-10T07:25:09.748Z,18.88
2023-05-10T07:28:12.606Z,19.06
2023-05-10T07:31:15.407Z,19.21
2023-05-10T07:34:18.171Z,19.33
2023-05-10T07:37:21.093Z,19.43
2023-05-10T07:40:23.943Z,19.48
2023-05-10T07:43:26.735Z,19.56
2023-05-10T07:46:29.660Z,19.70
2023-05-10T07:49:32.521Z,19.72
2023-05-10T07:52:35.368Z,19.71
2023-05-10T07:55:38.136Z,19.73
2023-05-10T07:58:40.855Z,19.79
2023-05-10T08:01:45.055Z,19.89
2023-05-10T08:04:48.075Z,19.92
2023-05-10T08:07:51.330Z,19.90
2023-05-10T08:10:55.402Z,19.89
2023-05-10T08:13:59.720Z,20.01
2023-05-10T08:17:03.109Z,20.17
2023-05-10T08:20:24.890Z,20.23
2023-05-10T08:23:28.847Z,20.28
2023-05-10T08:26:32.502Z,20.31
2023-05-10T08:29:48.928Z,20.37
2023-05-10T08:32:55.961Z,20.49
2023-05-10T08:35:59.382Z,20.62
2023-05-10T08:39:23.017Z,20.66
2023-05-10T08:42:39.095Z,20.82
2023-05-10T08:45:54.101Z,21.15
2023-05-10T08:49:00.167Z,21.43
2023-05-10T08:52:06.595Z,21.67
2023-05-10T08:55:12.765Z,21.80
2023-05-10T08:58:23.160Z,21.86
2023-05-10T09:01:29.091Z,21.64
2023-05-10T09:04:37.491Z,21.26
2023-05-10T09:07:41.072Z,21.00
2023-05-10T09:10:48.910Z,20.79
2023-05-10T09:13:57.940Z,20.64
2023-05-10T09:17:09.028Z,20.39
2023-05-10T09:20:12.240Z,20.17
2023-05-10T09:23:20.018Z,20.23
2023-05-10T09:26:25.939Z,20.41
2023-05-10T09:29:43.883Z,20.42
2023-05-10T09:32:49.411Z,20.36
2023-05-10T09:35:53.952Z,20.18
2023-05-10T09:38:57.627Z,20.03
2023-05-10T09:42:08.257Z,20.09
2023-05-10T09:45:11.273Z,20.20
2023-05-10T09:48:22.880Z,20.53
2023-05-10T09:51:28.411Z,20.74
2023-05-10T09:54:32.785Z,20.66
2023-05-10T09:57:36.064Z,20.52
2023-05-10T10:00:53.426Z,20.71
2023-05-10T10:03:59.038Z,20.96
2023-05-10T10:07:03.894Z,21.04
2023-05-10T10:10:12.675Z,21.25
2023-05-10T10:13:16.572Z,21.48
2023-05-10T10:16:21.034Z,21.44
2023-05-10T10:19:25.905Z,21.43
2023-05-10T10:22:29.750Z,21.78
2023-05-10T10:25:33.440Z,22.04
2023-05-10T10:28:53.903Z,21.98
2023-05-10T10:32:35.900Z,21.77
2023-05-10T10:35:41.518Z,21.98
2023-05-10T10:38:47.233Z,22.11
2023-05-10T10:42:01.948Z,22.15
2023-05-10T10:45:18.778Z,22.12
2023-05-10T10:48:26.038Z,22.00
2023-05-10T10:51:32.457Z,21.82
2023-05-10T10:54:36.415Z,21.77
2023-05-10T10:57:46.310Z,21.82
2023-05-10T11:00:50.462Z,21.88
2023-05-10T11:04:00.139Z,21.98
2023-05-10T11:07:19.090Z,22.01
2023-05-10T11:10:23.110Z,22.15
2023-05-10T11:13:52.638Z,22.24
2023-05-10T11:16:55.569Z,22.16
2023-05-10T11:20:10.531Z,22.07
2023-05-10T11:23:16.972Z,21.97
2023-05-10T11:26:20.020Z,22.03
2023-05-10T11:29:23.725Z,22.03
2023-05-10T11:32:27.892Z,22.05
2023-05-10T11:35:32.095Z,22.07
2023-05-10T11:38:34.951Z,21.95
2023-05-10T11:41:38.334Z,21.80
2023-05-10T11:44:44.073Z,21.85
2023-05-10T11:47:51.397Z,21.89
2023-05-10T11:50:58.991Z,21.87
2023-05-10T11:54:01.869Z,22.05
2023-05-10T11:57:05.216Z,22.21
2023-05-10T12:00:09.232Z,22.22
2023-05-10T12:03:12.424Z,22.26
2023-05-10T12:06:17.257Z,22.31
2023-05-10T12:09:35.537Z,22.37
2023-05-10T12:12:51.401Z,22.51
2023-05-10T12:16:15.129Z,22.49
2023-05-10T12:19:22.730Z,22.47
2023-05-10T12:22:26.075Z,22.50
2023-05-10T12:25:34.654Z,22.58
2023-05-10T12:28:39.433Z,22.58
2023-05-10T12:31:57.732Z,22.45
2023-05-10T12:35:01.133Z,22.33
2023-05-10T12:38:27.448Z,22.39
2023-05-10T12:41:31.137Z,22.40
2023-05-10T12:44:34.112Z,22.40
2023-05-10T12:47:37.773Z,22.39
2023-05-10T12:50:41.123Z,22.48
2023-05-10T12:53:49.251Z,22.51
2023-05-10T12:56:54.837Z,22.37
2023-05-10T13:03:25.980Z,22.61
2023-05-10T13:06:29.459Z,22.84
2023-05-10T13:09:33.700Z,22.99
2023-05-10T13:12:39.502Z,23.08
2023-05-10T13:15:43.751Z,23.10
2023-05-10T13:18:47.446Z,23.13
2023-05-10T13:21:51.935Z,23.20
2023-05-10T13:24:55.314Z,23.28
2023-05-10T13:27:58.177Z,23.26
2023-05-10T13:31:01.709Z,23.24
2023-05-10T13:34:04.869Z,23.38
2023-05-10T13:37:08.324Z,23.55
2023-05-10T13:40:16.930Z,23.73
2023-05-10T13:43:21.034Z,23.88
2023-05-10T13:46:24.405Z,23.83
2023-05-10T13:49:27.872Z,23.58
2023-05-10T13:52:31.768Z,23.29
2023-05-10T13:55:35.789Z,23.17
2023-05-10T13:58:39.358Z,23.35
2023-05-10T14:01:43.918Z,23.63
2023-05-10T14:04:47.581Z,23.94
2023-05-10T14:07:52.461Z,24.19
2023-05-10T14:10:58.234Z,24.33
2023-05-10T14:14:02.765Z,24.29
2023-05-10T14:17:13.068Z,24.21
2023-05-10T14:20:16.535Z,24.20
2023-05-10T14:23:21.317Z,24.11
2023-05-10T14:26:24.388Z,23.99
2023-05-10T14:29:27.269Z,23.90
2023-05-10T14:32:31.107Z,23.75
2023-05-10T14:35:34.085Z,23.81
2023-05-10T14:38:37.986Z,24.00
2023-05-10T14:41:43.973Z,24.22
2023-05-10T14:44:47.753Z,24.22
2023-05-10T14:47:51.796Z,24.16
2023-05-10T14:50:55.524Z,24.08
2023-05-10T14:53:58.712Z,24.00
2023-05-10T14:57:04.691Z,23.74
2023-05-10T15:00:19.144Z,23.63
2023-05-10T15:03:27.391Z,23.65
2023-05-10T15:06:43.081Z,23.57
2023-05-10T15:09:48.588Z,23.38
2023-05-10T15:12:56.245Z,23.18
2023-05-10T15:16:05.286Z,23.06
2023-05-10T15:19:09.466Z,22.82
2023-05-10T15:22:17.841Z,22.53
2023-05-10T15:25:24.228Z,22.24
2023-05-10T15:28:28.592Z,22.07
2023-05-10T15:31:32.859Z,21.86
2023-05-10T15:35:00.873Z,21.58
2023-05-10T15:38:05.291Z,21.21
2023-05-10T15:41:10.717Z,20.89
2023-05-10T15:44:14.584Z,20.59
2023-05-10T15:47:18.505Z,20.29
2023-05-10T15:50:22.199Z,19.97
2023-05-10T15:53:27.989Z,19.74
2023-05-10T15:56:38.470Z,19.56
2023-05-10T15:59:43.016Z,19.36
2023-05-10T16:02:55.241Z,19.21
2023-05-10T16:06:01.067Z,19.07
2023-05-10T16:09:04.802Z,18.95
2023-05-10T16:12:12.743Z,18.84
2023-05-10T16:15:36.488Z,18.71
2023-05-10T16:18:40.317Z,18.60
2023-05-10T16:21:47.999Z,18.53
2023-05-10T16:24:53.654Z,18.46
2023-05-10T16:28:04.567Z,18.38
2023-05-10T16:31:13.004Z,18.29
2023-05-10T16:34:25.462Z,18.23
2023-05-10T16:37:28.976Z,18.17
2023-05-10T16:40:36.052Z,18.13
2023-05-10T16:43:41.747Z,18.13
2023-05-10T16:46:46.306Z,18.15
2023-05-10T16:49:54.402Z,18.17
2023-05-10T16:52:58.567Z,18.18
2023-05-10T16:56:28.825Z,18.16
2023-05-10T16:59:34.405Z,18.06
2023-05-10T17:02:50.465Z,17.94
2023-05-10T17:05:54.014Z,17.84
2023-05-10T17:08:58.701Z,17.72
2023-05-10T17:12:03.490Z,17.58
2023-05-10T17:15:13.278Z,17.42
2023-05-10T17:18:18.815Z,17.26
2023-05-10T17:21:24.120Z,17.09
2023-05-10T17:24:29.858Z,16.94
2023-05-10T17:27:35.584Z,16.80
2023-05-10T17:30:45.273Z,16.67
2023-05-10T17:33:49.700Z,16.55
2023-05-10T17:36:56.147Z,16.43
2023-05-10T17:40:00.717Z,16.33
2023-05-10T17:43:06.485Z,16.23
2023-05-10T17:46:19.155Z,16.12
2023-05-10T17:49:24.060Z,16.02
2023-05-10T17:52:32.092Z,15.90
2023-05-10T17:55:45.621Z,15.80
2023-05-10T17:58:51.399Z,15.67
2023-05-10T18:02:17.035Z,15.57
2023-05-10T18:05:23.055Z,15.46
2023-05-10T18:08:29.950Z,15.35
2023-05-10T18:11:55.896Z,15.24
2023-05-10T18:15:14.613Z,15.13
2023-05-10T18:18:25.457Z,15.01
2023-05-10T18:21:39.126Z,14.89
2023-05-10T18:24:47.120Z,14.77
2023-05-10T18:27:54.129Z,14.63
2023-05-10T18:31:01.235Z,14.50
2023-05-10T18:34:06.444Z,14.36
2023-05-10T18:37:25.895Z,14.22
2023-05-10T18:40:41.631Z,14.10
2023-05-10T18:44:32.067Z,13.97
2023-05-10T18:47:46.446Z,13.85
2023-05-10T18:50:51.044Z,13.74
2023-05-10T18:54:07.642Z,13.64
2023-05-10T18:57:16.462Z,13.55
2023-05-10T19:00:24.459Z,13.48
2023-05-10T19:03:32.036Z,13.42
2023-05-10T19:06:38.504Z,13.36
2023-05-10T19:09:41.690Z,13.29
2023-05-10T19:12:45.195Z,13.23
2023-05-10T19:16:06.197Z,13.18
2023-05-10T19:19:17.519Z,13.14
2023-05-10T19:22:32.072Z,13.10
2023-05-10T19:25:44.677Z,13.08
2023-05-10T19:28:51.382Z,13.07
2023-05-10T19:31:58.433Z,13.05
2023-05-10T19:35:10.942Z,13.02
2023-05-10T19:38:36.753Z,12.99
2023-05-10T19:41:51.292Z,12.94
2023-05-10T19:45:12.194Z,12.89
2023-05-10T19:48:23.600Z,12.86
2023-05-10T19:51:34.683Z,12.82
2023-05-10T19:54:47.124Z,12.80
2023-05-10T19:58:10.531Z,12.76
2023-05-10T20:01:33.908Z,12.72
2023-05-10T20:04:58.829Z,12.69
2023-05-10T20:08:17.203Z,12.66
2023-05-10T20:11:29.210Z,12.64
2023-05-10T20:14:43.237Z,12.63
2023-05-10T20:18:19.044Z,12.63
2023-05-10T20:22:06.497Z,12.61
2023-05-10T20:25:18.689Z,12.60
2023-05-10T20:28:23.545Z,12.58
2023-05-10T20:31:26.578Z,12.57
2023-05-10T20:34:32.280Z,12.57
2023-05-10T20:37:35.236Z,12.57
2023-05-10T20:40:39.123Z,12.56
2023-05-10T20:43:42.312Z,12.55
2023-05-10T20:46:45.290Z,12.52
2023-05-10T20:49:48.115Z,12.50
2023-05-10T20:52:53.810Z,12.47
2023-05-10T20:55:56.766Z,12.44
2023-05-10T20:58:59.593Z,12.40
2023-05-10T21:02:02.457Z,12.38
2023-05-10T21:05:06.064Z,12.38
2023-05-10T21:08:08.970Z,12.35
2023-05-10T21:11:11.909Z,12.32
2023-05-10T21:14:14.702Z,12.28
2023-05-10T21:17:19.914Z,12.24
2023-05-10T21:20:23.893Z,12.21
2023-05-10T21:23:26.835Z,12.17
2023-05-10T21:26:29.814Z,12.11
2023-05-10T21:29:32.622Z,12.06
2023-05-10T21:32:36.924Z,12.04
2023-05-10T21:35:42.918Z,12.01
2023-05-10T21:38:46.714Z,11.96
2023-05-10T21:41:49.514Z,11.92
2023-05-10T21:44:52.681Z,11.87
2023-05-10T21:47:55.805Z,11.82
2023-05-10T21:50:59.363Z,11.80
2023-05-10T21:54:02.209Z,11.77
2023-05-10T21:57:05.182Z,11.72
2023-05-10T22:00:10.395Z,11.68
2023-05-10T22:03:13.512Z,11.63
2023-05-10T22:06:16.581Z,11.58
2023-05-10T22:09:19.596Z,11.54
2023-05-10T22:12:22.538Z,11.53
2023-05-10T22:15:25.595Z,11.49
2023-05-10T22:18:28.924Z,11.47
2023-05-10T22:21:32.817Z,11.49
2023-05-10T22:24:36.909Z,11.49
2023-05-10T22:27:40.756Z,11.46
2023-05-10T22:30:43.954Z,11.39
2023-05-10T22:33:47.030Z,11.32
2023-05-10T22:36:50.583Z,11.26
2023-05-10T22:39:53.745Z,11.22
2023-05-10T22:42:56.652Z,11.18
2023-05-10T22:45:59.637Z,11.15
2023-05-10T22:49:02.713Z,11.12
2023-05-10T22:52:05.578Z,11.09
2023-05-10T22:55:09.618Z,11.06
2023-05-10T22:58:12.810Z,11.02
2023-05-10T23:01:15.957Z,10.96
2023-05-10T23:04:18.899Z,10.91
2023-05-10T23:07:21.777Z,10.83
2023-05-10T23:10:24.637Z,10.75
2023-05-10T23:13:27.681Z,10.66
2023-05-10T23:16:30.743Z,10.58
2023-05-10T23:19:33.790Z,10.48
2023-05-10T23:22:37.509Z,10.38
2023-05-10T23:25:40.677Z,10.28
2023-05-10T23:28:43.790Z,10.18
2023-05-10T23:31:50.733Z,10.08
2023-05-10T23:34:53.889Z,9.99
2023-05-10T23:37:56.852Z,9.89
2023-05-10T23:40:59.669Z,9.79
2023-05-10T23:44:02.737Z,9.68
2023-05-10T23:47:06.116Z,9.57
2023-05-10T23:50:09.706Z,9.47
2023-05-10T23:53:12.702Z,9.38
2023-05-10T23:56:15.737Z,9.31
2023-05-10T23:59:18.740Z,9.23
